sensor_id;sensor_type;location;lat;lon;timestamp;temperature;humidity
33825;DHT22;20127;48.962;8.342;2022-08-25T00:02:44;22.20;68.20
33825;DHT22;20127;48.962;8.342;2022-08-25T00:05:59;22.10;68.20
33825;DHT22;20127;48.962;8.342;2022-08-25T00:09:02;22.10;68.60
33825;DHT22;20127;48.962;8.342;2022-08-25T00:12:04;22.10;68.90
33825;DHT22;20127;48.962;8.342;2022-08-25T00:15:08;22.00;69.00
33825;DHT22;20127;48.962;8.342;2022-08-25T00:18:10;22.00;69.60
33825;DHT22;20127;48.962;8.342;2022-08-25T00:21:13;21.90;69.80
33825;DHT22;20127;48.962;8.342;2022-08-25T00:24:17;21.90;69.80
33825;DHT22;20127;48.962;8.342;2022-08-25T00:27:19;21.90;69.90
33825;DHT22;20127;48.962;8.342;2022-08-25T00:30:22;21.90;70.20
33825;DHT22;20127;48.962;8.342;2022-08-25T00:33:24;21.80;70.50
33825;DHT22;20127;48.962;8.342;2022-08-25T00:36:27;21.80;70.60
33825;DHT22;20127;48.962;8.342;2022-08-25T00:39:29;21.80;70.80
33825;DHT22;20127;48.962;8.342;2022-08-25T00:42:31;21.80;71.20
33825;DHT22;20127;48.962;8.342;2022-08-25T00:45:35;21.70;71.60
33825;DHT22;20127;48.962;8.342;2022-08-25T00:48:38;21.60;72.30
33825;DHT22;20127;48.962;8.342;2022-08-25T00:51:45;21.60;72.50
33825;DHT22;20127;48.962;8.342;2022-08-25T00:54:50;21.60;72.70
33825;DHT22;20127;48.962;8.342;2022-08-25T00:57:56;21.50;73.50
33825;DHT22;20127;48.962;8.342;2022-08-25T01:00:59;21.40;73.50
33825;DHT22;20127;48.962;8.342;2022-08-25T01:04:01;21.40;73.90
33825;DHT22;20127;48.962;8.342;2022-08-25T01:07:04;21.30;75.20
33825;DHT22;20127;48.962;8.342;2022-08-25T01:10:08;21.40;76.10
33825;DHT22;20127;48.962;8.342;2022-08-25T01:13:13;21.30;76.60
33825;DHT22;20127;48.962;8.342;2022-08-25T01:16:19;21.40;77.50
33825;DHT22;20127;48.962;8.342;2022-08-25T01:19:21;21.40;77.80
33825;DHT22;20127;48.962;8.342;2022-08-25T01:22:24;21.50;78.00
33825;DHT22;20127;48.962;8.342;2022-08-25T01:25:34;21.50;77.80
33825;DHT22;20127;48.962;8.342;2022-08-25T01:28:37;21.60;78.20
33825;DHT22;20127;48.962;8.342;2022-08-25T01:32:00;21.60;77.90
33825;DHT22;20127;48.962;8.342;2022-08-25T01:35:03;21.60;77.30
33825;DHT22;20127;48.962;8.342;2022-08-25T01:38:07;21.60;76.90
33825;DHT22;20127;48.962;8.342;2022-08-25T01:41:08;21.60;76.80
33825;DHT22;20127;48.962;8.342;2022-08-25T01:44:10;21.70;77.30
33825;DHT22;20127;48.962;8.342;2022-08-25T01:47:13;21.60;77.30
33825;DHT22;20127;48.962;8.342;2022-08-25T01:50:15;21.60;77.00
33825;DHT22;20127;48.962;8.342;2022-08-25T01:53:21;21.60;76.80
33825;DHT22;20127;48.962;8.342;2022-08-25T01:56:23;21.50;77.00
33825;DHT22;20127;48.962;8.342;2022-08-25T01:59:26;21.40;77.40
33825;DHT22;20127;48.962;8.342;2022-08-25T02:02:28;21.30;77.40
33825;DHT22;20127;48.962;8.342;2022-08-25T02:05:29;21.30;77.70
33825;DHT22;20127;48.962;8.342;2022-08-25T02:08:33;21.20;77.80
33825;DHT22;20127;48.962;8.342;2022-08-25T02:11:36;21.20;77.80
33825;DHT22;20127;48.962;8.342;2022-08-25T02:14:39;21.10;78.00
33825;DHT22;20127;48.962;8.342;2022-08-25T02:17:40;21.10;78.20
33825;DHT22;20127;48.962;8.342;2022-08-25T02:20:42;21.10;78.90
33825;DHT22;20127;48.962;8.342;2022-08-25T02:23:45;21.00;79.00
33825;DHT22;20127;48.962;8.342;2022-08-25T02:26:48;21.00;79.00
33825;DHT22;20127;48.962;8.342;2022-08-25T02:29:49;20.90;80.20
33825;DHT22;20127;48.962;8.342;2022-08-25T02:32:52;20.80;80.00
33825;DHT22;20127;48.962;8.342;2022-08-25T02:35:56;20.90;80.20
33825;DHT22;20127;48.962;8.342;2022-08-25T02:39:00;20.90;80.40
33825;DHT22;20127;48.962;8.342;2022-08-25T02:42:02;20.80;80.30
33825;DHT22;20127;48.962;8.342;2022-08-25T02:45:05;20.70;80.70
33825;DHT22;20127;48.962;8.342;2022-08-25T02:48:07;20.70;81.20
33825;DHT22;20127;48.962;8.342;2022-08-25T02:51:09;20.60;81.60
33825;DHT22;20127;48.962;8.342;2022-08-25T02:54:13;20.60;81.90
33825;DHT22;20127;48.962;8.342;2022-08-25T02:57:15;20.50;82.40
33825;DHT22;20127;48.962;8.342;2022-08-25T03:00:18;20.50;82.30
33825;DHT22;20127;48.962;8.342;2022-08-25T03:03:19;20.50;82.10
33825;DHT22;20127;48.962;8.342;2022-08-25T03:06:22;20.40;82.90
33825;DHT22;20127;48.962;8.342;2022-08-25T03:09:26;20.40;82.30
33825;DHT22;20127;48.962;8.342;2022-08-25T03:12:27;20.40;82.30
33825;DHT22;20127;48.962;8.342;2022-08-25T03:15:30;20.40;82.50
33825;DHT22;20127;48.962;8.342;2022-08-25T03:18:32;20.30;82.30
33825;DHT22;20127;48.962;8.342;2022-08-25T03:21:36;20.30;82.30
33825;DHT22;20127;48.962;8.342;2022-08-25T03:24:39;20.20;82.40
33825;DHT22;20127;48.962;8.342;2022-08-25T03:27:41;20.20;82.50
33825;DHT22;20127;48.962;8.342;2022-08-25T03:30:42;20.20;82.70
33825;DHT22;20127;48.962;8.342;2022-08-25T03:33:44;20.20;82.80
33825;DHT22;20127;48.962;8.342;2022-08-25T03:36:49;20.10;82.80
33825;DHT22;20127;48.962;8.342;2022-08-25T03:39:52;20.10;83.30
33825;DHT22;20127;48.962;8.342;2022-08-25T03:42:54;20.10;84.10
33825;DHT22;20127;48.962;8.342;2022-08-25T03:45:56;20.10;83.90
33825;DHT22;20127;48.962;8.342;2022-08-25T03:49:00;20.00;84.00
33825;DHT22;20127;48.962;8.342;2022-08-25T03:52:03;20.00;84.20
33825;DHT22;20127;48.962;8.342;2022-08-25T03:55:10;20.00;84.50
33825;DHT22;20127;48.962;8.342;2022-08-25T03:58:12;20.00;84.50
33825;DHT22;20127;48.962;8.342;2022-08-25T04:01:15;20.00;84.70
33825;DHT22;20127;48.962;8.342;2022-08-25T04:04:16;20.00;84.90
33825;DHT22;20127;48.962;8.342;2022-08-25T04:07:18;20.00;85.10
33825;DHT22;20127;48.962;8.342;2022-08-25T04:10:21;20.00;85.30
33825;DHT22;20127;48.962;8.342;2022-08-25T04:13:23;19.90;85.40
33825;DHT22;20127;48.962;8.342;2022-08-25T04:16:27;19.90;85.60
33825;DHT22;20127;48.962;8.342;2022-08-25T04:19:30;19.90;86.00
33825;DHT22;20127;48.962;8.342;2022-08-25T04:22:32;19.90;86.20
33825;DHT22;20127;48.962;8.342;2022-08-25T04:25:39;19.90;86.50
33825;DHT22;20127;48.962;8.342;2022-08-25T04:28:41;19.80;86.90
33825;DHT22;20127;48.962;8.342;2022-08-25T04:31:44;19.80;87.00
33825;DHT22;20127;48.962;8.342;2022-08-25T04:34:47;19.80;87.30
33825;DHT22;20127;48.962;8.342;2022-08-25T04:37:48;19.90;87.70
33825;DHT22;20127;48.962;8.342;2022-08-25T04:40:56;19.90;87.70
33825;DHT22;20127;48.962;8.342;2022-08-25T04:43:58;19.90;88.60
33825;DHT22;20127;48.962;8.342;2022-08-25T04:47:00;19.90;88.60
33825;DHT22;20127;48.962;8.342;2022-08-25T04:50:03;20.10;88.40
33825;DHT22;20127;48.962;8.342;2022-08-25T04:53:05;20.00;88.20
33825;DHT22;20127;48.962;8.342;2022-08-25T04:56:10;20.00;88.50
33825;DHT22;20127;48.962;8.342;2022-08-25T04:59:14;20.10;88.50
33825;DHT22;20127;48.962;8.342;2022-08-25T05:02:15;20.20;88.30
33825;DHT22;20127;48.962;8.342;2022-08-25T05:05:17;20.30;88.20
33825;DHT22;20127;48.962;8.342;2022-08-25T05:08:19;20.40;88.00
33825;DHT22;20127;48.962;8.342;2022-08-25T05:11:22;20.50;87.80
33825;DHT22;20127;48.962;8.342;2022-08-25T05:14:25;20.60;88.10
33825;DHT22;20127;48.962;8.342;2022-08-25T05:17:26;20.70;88.00
33825;DHT22;20127;48.962;8.342;2022-08-25T05:20:28;20.90;87.80
33825;DHT22;20127;48.962;8.342;2022-08-25T05:23:30;21.00;87.20
33825;DHT22;20127;48.962;8.342;2022-08-25T05:26:34;21.30;86.50
33825;DHT22;20127;48.962;8.342;2022-08-25T05:29:37;21.50;85.60
33825;DHT22;20127;48.962;8.342;2022-08-25T05:32:39;21.80;84.80
33825;DHT22;20127;48.962;8.342;2022-08-25T05:35:41;22.00;83.80
33825;DHT22;20127;48.962;8.342;2022-08-25T05:38:43;22.20;82.70
33825;DHT22;20127;48.962;8.342;2022-08-25T05:41:46;22.30;82.10
33825;DHT22;20127;48.962;8.342;2022-08-25T05:44:48;22.40;81.70
33825;DHT22;20127;48.962;8.342;2022-08-25T05:47:50;22.50;81.20
33825;DHT22;20127;48.962;8.342;2022-08-25T05:50:52;22.70;80.30
33825;DHT22;20127;48.962;8.342;2022-08-25T05:53:54;22.80;79.80
33825;DHT22;20127;48.962;8.342;2022-08-25T05:56:57;23.10;79.10
33825;DHT22;20127;48.962;8.342;2022-08-25T05:59:59;23.70;77.00
33825;DHT22;20127;48.962;8.342;2022-08-25T06:03:01;24.70;74.00
33825;DHT22;20127;48.962;8.342;2022-08-25T06:06:05;25.80;69.20
33825;DHT22;20127;48.962;8.342;2022-08-25T06:09:07;25.90;67.80
33825;DHT22;20127;48.962;8.342;2022-08-25T06:12:10;25.60;68.30
33825;DHT22;20127;48.962;8.342;2022-08-25T06:15:18;25.30;68.70
33825;DHT22;20127;48.962;8.342;2022-08-25T06:18:20;25.10;69.40
33825;DHT22;20127;48.962;8.342;2022-08-25T06:21:22;25.00;69.70
33825;DHT22;20127;48.962;8.342;2022-08-25T06:24:25;25.00;70.00
33825;DHT22;20127;48.962;8.342;2022-08-25T06:27:28;25.30;69.50
33825;DHT22;20127;48.962;8.342;2022-08-25T06:30:30;25.70;68.20
33825;DHT22;20127;48.962;8.342;2022-08-25T06:33:32;25.90;67.20
33825;DHT22;20127;48.962;8.342;2022-08-25T06:36:34;26.10;66.80
33825;DHT22;20127;48.962;8.342;2022-08-25T06:39:35;26.60;65.60
33825;DHT22;20127;48.962;8.342;2022-08-25T06:42:38;27.20;63.60
33825;DHT22;20127;48.962;8.342;2022-08-25T06:45:40;28.00;61.50
33825;DHT22;20127;48.962;8.342;2022-08-25T06:48:43;28.90;58.50
33825;DHT22;20127;48.962;8.342;2022-08-25T06:51:45;30.00;56.20
33825;DHT22;20127;48.962;8.342;2022-08-25T06:54:47;31.50;53.20
33825;DHT22;20127;48.962;8.342;2022-08-25T06:57:52;33.00;49.90
33825;DHT22;20127;48.962;8.342;2022-08-25T07:00:54;33.50;47.50
33825;DHT22;20127;48.962;8.342;2022-08-25T07:03:57;33.80;46.90
33825;DHT22;20127;48.962;8.342;2022-08-25T07:07:00;33.40;46.70
33825;DHT22;20127;48.962;8.342;2022-08-25T07:10:02;32.90;47.10
33825;DHT22;20127;48.962;8.342;2022-08-25T07:13:05;32.30;48.10
33825;DHT22;20127;48.962;8.342;2022-08-25T07:16:07;31.90;49.20
33825;DHT22;20127;48.962;8.342;2022-08-25T07:19:10;31.90;49.70
33825;DHT22;20127;48.962;8.342;2022-08-25T07:22:12;32.40;49.10
33825;DHT22;20127;48.962;8.342;2022-08-25T07:25:14;32.50;48.30
33825;DHT22;20127;48.962;8.342;2022-08-25T07:28:17;32.50;48.40
33825;DHT22;20127;48.962;8.342;2022-08-25T07:31:19;32.50;47.90
33825;DHT22;20127;48.962;8.342;2022-08-25T07:34:21;32.40;47.90
33825;DHT22;20127;48.962;8.342;2022-08-25T07:37:40;32.40;48.10
33825;DHT22;20127;48.962;8.342;2022-08-25T07:40:42;32.60;47.80
33825;DHT22;20127;48.962;8.342;2022-08-25T07:43:45;33.00;46.90
33825;DHT22;20127;48.962;8.342;2022-08-25T07:46:49;33.30;46.20
33825;DHT22;20127;48.962;8.342;2022-08-25T07:49:51;33.40;45.80
33825;DHT22;20127;48.962;8.342;2022-08-25T07:52:53;34.10;45.30
33825;DHT22;20127;48.962;8.342;2022-08-25T07:55:54;35.00;43.90
33825;DHT22;20127;48.962;8.342;2022-08-25T07:58:57;35.60;42.80
33825;DHT22;20127;48.962;8.342;2022-08-25T08:01:59;35.90;42.30
33825;DHT22;20127;48.962;8.342;2022-08-25T08:05:01;35.40;42.50
33825;DHT22;20127;48.962;8.342;2022-08-25T08:08:03;34.20;44.10
33825;DHT22;20127;48.962;8.342;2022-08-25T08:11:04;33.30;46.00
33825;DHT22;20127;48.962;8.342;2022-08-25T08:14:08;32.60;46.90
33825;DHT22;20127;48.962;8.342;2022-08-25T08:17:10;32.20;48.10
33825;DHT22;20127;48.962;8.342;2022-08-25T08:20:12;32.20;48.40
33825;DHT22;20127;48.962;8.342;2022-08-25T08:23:15;32.10;48.40
33825;DHT22;20127;48.962;8.342;2022-08-25T08:26:17;31.90;48.30
33825;DHT22;20127;48.962;8.342;2022-08-25T08:29:20;31.70;49.00
33825;DHT22;20127;48.962;8.342;2022-08-25T08:32:22;31.80;49.00
33825;DHT22;20127;48.962;8.342;2022-08-25T08:35:24;32.00;48.40
33825;DHT22;20127;48.962;8.342;2022-08-25T08:38:26;31.90;48.20
33825;DHT22;20127;48.962;8.342;2022-08-25T08:41:49;31.80;48.90
33825;DHT22;20127;48.962;8.342;2022-08-25T08:45:28;31.70;48.40
33825;DHT22;20127;48.962;8.342;2022-08-25T08:48:50;31.60;47.30
33825;DHT22;20127;48.962;8.342;2022-08-25T08:51:59;31.40;47.90
33825;DHT22;20127;48.962;8.342;2022-08-25T08:55:06;31.60;48.50
33825;DHT22;20127;48.962;8.342;2022-08-25T08:58:14;31.90;48.20
33825;DHT22;20127;48.962;8.342;2022-08-25T09:01:27;31.70;48.80
33825;DHT22;20127;48.962;8.342;2022-08-25T09:04:34;31.70;48.40
33825;DHT22;20127;48.962;8.342;2022-08-25T09:07:41;31.90;48.50
33825;DHT22;20127;48.962;8.342;2022-08-25T09:10:55;31.90;47.20
33825;DHT22;20127;48.962;8.342;2022-08-25T09:14:08;32.20;47.50
33825;DHT22;20127;48.962;8.342;2022-08-25T09:17:19;32.30;47.40
33825;DHT22;20127;48.962;8.342;2022-08-25T09:20:34;32.60;46.60
33825;DHT22;20127;48.962;8.342;2022-08-25T09:23:58;32.70;45.70
33825;DHT22;20127;48.962;8.342;2022-08-25T09:27:10;32.50;45.80
33825;DHT22;20127;48.962;8.342;2022-08-25T09:30:15;32.50;46.10
33825;DHT22;20127;48.962;8.342;2022-08-25T09:33:21;32.50;46.20
33825;DHT22;20127;48.962;8.342;2022-08-25T09:36:23;32.40;46.10
33825;DHT22;20127;48.962;8.342;2022-08-25T09:39:26;32.30;45.90
33825;DHT22;20127;48.962;8.342;2022-08-25T09:42:46;32.20;45.90
33825;DHT22;20127;48.962;8.342;2022-08-25T09:45:57;32.50;46.50
33825;DHT22;20127;48.962;8.342;2022-08-25T09:49:11;32.80;45.00
33825;DHT22;20127;48.962;8.342;2022-08-25T09:52:24;33.20;44.70
33825;DHT22;20127;48.962;8.342;2022-08-25T09:55:30;34.10;42.80
33825;DHT22;20127;48.962;8.342;2022-08-25T09:58:33;34.50;42.40
33825;DHT22;20127;48.962;8.342;2022-08-25T10:01:47;34.30;42.10
33825;DHT22;20127;48.962;8.342;2022-08-25T10:04:51;34.10;42.80
33825;DHT22;20127;48.962;8.342;2022-08-25T10:07:55;34.10;42.50
33825;DHT22;20127;48.962;8.342;2022-08-25T10:10:59;33.80;42.90
33825;DHT22;20127;48.962;8.342;2022-08-25T10:14:05;33.90;42.60
33825;DHT22;20127;48.962;8.342;2022-08-25T10:17:13;33.70;42.70
33825;DHT22;20127;48.962;8.342;2022-08-25T10:20:20;33.40;43.20
33825;DHT22;20127;48.962;8.342;2022-08-25T10:23:26;33.60;43.10
33825;DHT22;20127;48.962;8.342;2022-08-25T10:26:36;33.70;42.20
33825;DHT22;20127;48.962;8.342;2022-08-25T10:29:58;33.60;42.60
33825;DHT22;20127;48.962;8.342;2022-08-25T10:33:12;33.90;42.00
33825;DHT22;20127;48.962;8.342;2022-08-25T10:36:20;33.60;42.00
33825;DHT22;20127;48.962;8.342;2022-08-25T10:39:37;33.30;42.30
33825;DHT22;20127;48.962;8.342;2022-08-25T10:42:44;33.20;42.70
33825;DHT22;20127;48.962;8.342;2022-08-25T10:45:52;33.60;42.20
33825;DHT22;20127;48.962;8.342;2022-08-25T10:49:02;33.60;42.20
33825;DHT22;20127;48.962;8.342;2022-08-25T10:52:11;33.70;41.80
33825;DHT22;20127;48.962;8.342;2022-08-25T10:55:21;33.90;41.80
33825;DHT22;20127;48.962;8.342;2022-08-25T10:58:35;34.10;41.70
33825;DHT22;20127;48.962;8.342;2022-08-25T11:02:24;34.20;41.40
33825;DHT22;20127;48.962;8.342;2022-08-25T11:05:30;34.10;41.10
33825;DHT22;20127;48.962;8.342;2022-08-25T11:08:39;34.50;40.70
33825;DHT22;20127;48.962;8.342;2022-08-25T11:11:47;34.40;40.50
33825;DHT22;20127;48.962;8.342;2022-08-25T11:14:51;34.00;41.20
33825;DHT22;20127;48.962;8.342;2022-08-25T11:17:57;34.10;40.90
33825;DHT22;20127;48.962;8.342;2022-08-25T11:21:04;34.60;41.40
33825;DHT22;20127;48.962;8.342;2022-08-25T11:24:21;35.10;40.00
33825;DHT22;20127;48.962;8.342;2022-08-25T11:27:31;35.00;39.80
33825;DHT22;20127;48.962;8.342;2022-08-25T11:30:35;35.40;39.50
33825;DHT22;20127;48.962;8.342;2022-08-25T11:33:37;35.70;38.70
33825;DHT22;20127;48.962;8.342;2022-08-25T11:36:42;35.70;38.80
33825;DHT22;20127;48.962;8.342;2022-08-25T11:43:35;36.00;38.40
33825;DHT22;20127;48.962;8.342;2022-08-25T11:46:47;35.90;38.20
33825;DHT22;20127;48.962;8.342;2022-08-25T11:49:53;36.00;38.10
33825;DHT22;20127;48.962;8.342;2022-08-25T11:53:02;35.80;38.00
33825;DHT22;20127;48.962;8.342;2022-08-25T11:56:31;35.80;37.90
33825;DHT22;20127;48.962;8.342;2022-08-25T12:00:05;35.80;39.30
33825;DHT22;20127;48.962;8.342;2022-08-25T12:07:25;36.60;37.10
33825;DHT22;20127;48.962;8.342;2022-08-25T12:10:56;36.70;36.90
33825;DHT22;20127;48.962;8.342;2022-08-25T12:14:11;36.30;37.10
33825;DHT22;20127;48.962;8.342;2022-08-25T12:17:25;36.40;37.40
33825;DHT22;20127;48.962;8.342;2022-08-25T12:24:12;35.70;37.60
33825;DHT22;20127;48.962;8.342;2022-08-25T12:27:23;35.40;37.80
33825;DHT22;20127;48.962;8.342;2022-08-25T12:30:36;35.70;37.90
33825;DHT22;20127;48.962;8.342;2022-08-25T12:33:49;35.70;37.00
33825;DHT22;20127;48.962;8.342;2022-08-25T12:37:03;35.80;37.20
33825;DHT22;20127;48.962;8.342;2022-08-25T12:40:05;35.80;36.70
33825;DHT22;20127;48.962;8.342;2022-08-25T12:43:12;36.40;36.80
33825;DHT22;20127;48.962;8.342;2022-08-25T12:46:34;36.90;36.00
33825;DHT22;20127;48.962;8.342;2022-08-25T12:49:36;36.60;36.20
33825;DHT22;20127;48.962;8.342;2022-08-25T12:52:38;36.60;36.20
33825;DHT22;20127;48.962;8.342;2022-08-25T12:55:44;36.80;35.80
33825;DHT22;20127;48.962;8.342;2022-08-25T12:58:52;37.20;35.40
33825;DHT22;20127;48.962;8.342;2022-08-25T13:02:18;37.40;34.80
33825;DHT22;20127;48.962;8.342;2022-08-25T13:05:46;37.30;35.10
33825;DHT22;20127;48.962;8.342;2022-08-25T13:12:42;37.00;34.90
33825;DHT22;20127;48.962;8.342;2022-08-25T13:15:57;37.00;35.10
33825;DHT22;20127;48.962;8.342;2022-08-25T13:19:05;37.20;34.90
33825;DHT22;20127;48.962;8.342;2022-08-25T13:22:12;37.50;34.40
33825;DHT22;20127;48.962;8.342;2022-08-25T13:25:16;38.10;33.60
33825;DHT22;20127;48.962;8.342;2022-08-25T13:28:22;37.90;33.70
33825;DHT22;20127;48.962;8.342;2022-08-25T13:31:26;37.80;34.20
33825;DHT22;20127;48.962;8.342;2022-08-25T13:34:31;37.70;34.20
33825;DHT22;20127;48.962;8.342;2022-08-25T13:37:33;37.60;34.00
33825;DHT22;20127;48.962;8.342;2022-08-25T13:40:35;37.20;34.60
33825;DHT22;20127;48.962;8.342;2022-08-25T13:43:38;37.10;34.30
33825;DHT22;20127;48.962;8.342;2022-08-25T13:46:41;37.40;34.20
33825;DHT22;20127;48.962;8.342;2022-08-25T13:49:46;37.60;34.00
33825;DHT22;20127;48.962;8.342;2022-08-25T13:52:50;38.00;33.90
33825;DHT22;20127;48.962;8.342;2022-08-25T13:55:56;38.30;33.40
33825;DHT22;20127;48.962;8.342;2022-08-25T13:58:59;38.50;33.20
33825;DHT22;20127;48.962;8.342;2022-08-25T14:02:06;38.50;33.10
33825;DHT22;20127;48.962;8.342;2022-08-25T14:05:08;38.30;33.30
33825;DHT22;20127;48.962;8.342;2022-08-25T14:08:29;38.20;33.30
33825;DHT22;20127;48.962;8.342;2022-08-25T14:11:40;38.20;33.00
33825;DHT22;20127;48.962;8.342;2022-08-25T14:14:57;38.40;33.00
33825;DHT22;20127;48.962;8.342;2022-08-25T14:18:03;38.20;33.30
33825;DHT22;20127;48.962;8.342;2022-08-25T14:21:09;38.00;33.30
33825;DHT22;20127;48.962;8.342;2022-08-25T14:24:14;37.60;33.80
33825;DHT22;20127;48.962;8.342;2022-08-25T14:27:17;37.30;34.10
33825;DHT22;20127;48.962;8.342;2022-08-25T14:30:19;37.10;34.60
33825;DHT22;20127;48.962;8.342;2022-08-25T14:33:24;37.20;34.50
33825;DHT22;20127;48.962;8.342;2022-08-25T14:36:28;37.30;34.70
33825;DHT22;20127;48.962;8.342;2022-08-25T14:39:31;37.70;34.50
33825;DHT22;20127;48.962;8.342;2022-08-25T14:42:32;38.10;33.90
33825;DHT22;20127;48.962;8.342;2022-08-25T14:45:36;38.00;33.50
33825;DHT22;20127;48.962;8.342;2022-08-25T14:48:43;37.60;33.90
33825;DHT22;20127;48.962;8.342;2022-08-25T14:51:46;37.60;34.00
33825;DHT22;20127;48.962;8.342;2022-08-25T14:54:49;37.20;33.90
33825;DHT22;20127;48.962;8.342;2022-08-25T14:57:50;36.60;34.80
33825;DHT22;20127;48.962;8.342;2022-08-25T15:00:53;36.50;34.90
33825;DHT22;20127;48.962;8.342;2022-08-25T15:03:59;36.10;35.20
33825;DHT22;20127;48.962;8.342;2022-08-25T15:07:02;35.50;35.80
33825;DHT22;20127;48.962;8.342;2022-08-25T15:10:24;35.40;36.00
33825;DHT22;20127;48.962;8.342;2022-08-25T15:13:26;35.20;36.30
33825;DHT22;20127;48.962;8.342;2022-08-25T15:16:30;35.20;36.50
33825;DHT22;20127;48.962;8.342;2022-08-25T15:19:34;35.20;36.40
33825;DHT22;20127;48.962;8.342;2022-08-25T15:22:35;35.20;36.50
33825;DHT22;20127;48.962;8.342;2022-08-25T15:25:38;35.20;36.20
33825;DHT22;20127;48.962;8.342;2022-08-25T15:28:45;34.90;36.60
33825;DHT22;20127;48.962;8.342;2022-08-25T15:31:48;35.00;36.80
33825;DHT22;20127;48.962;8.342;2022-08-25T15:34:51;35.50;36.30
33825;DHT22;20127;48.962;8.342;2022-08-25T15:37:53;35.80;35.80
33825;DHT22;20127;48.962;8.342;2022-08-25T15:40:55;35.70;35.60
33825;DHT22;20127;48.962;8.342;2022-08-25T15:43:57;35.90;35.60
33825;DHT22;20127;48.962;8.342;2022-08-25T15:46:59;35.70;35.60
33825;DHT22;20127;48.962;8.342;2022-08-25T15:50:06;35.30;35.90
33825;DHT22;20127;48.962;8.342;2022-08-25T15:53:08;35.30;36.10
33825;DHT22;20127;48.962;8.342;2022-08-25T15:56:11;35.40;35.90
33825;DHT22;20127;48.962;8.342;2022-08-25T15:59:18;35.20;36.00
33825;DHT22;20127;48.962;8.342;2022-08-25T16:02:20;34.90;36.10
33825;DHT22;20127;48.962;8.342;2022-08-25T16:05:23;34.80;36.80
33825;DHT22;20127;48.962;8.342;2022-08-25T16:08:24;34.50;36.90
33825;DHT22;20127;48.962;8.342;2022-08-25T16:11:28;34.30;37.10
33825;DHT22;20127;48.962;8.342;2022-08-25T16:14:31;34.00;37.20
33825;DHT22;20127;48.962;8.342;2022-08-25T16:17:32;33.80;37.50
33825;DHT22;20127;48.962;8.342;2022-08-25T16:20:35;33.70;37.60
33825;DHT22;20127;48.962;8.342;2022-08-25T16:23:37;33.70;37.60
33825;DHT22;20127;48.962;8.342;2022-08-25T16:26:39;33.70;37.90
33825;DHT22;20127;48.962;8.342;2022-08-25T16:29:43;33.70;37.40
33825;DHT22;20127;48.962;8.342;2022-08-25T16:32:45;33.60;37.70
33825;DHT22;20127;48.962;8.342;2022-08-25T16:35:48;33.50;37.70
33825;DHT22;20127;48.962;8.342;2022-08-25T16:38:51;33.40;37.60
33825;DHT22;20127;48.962;8.342;2022-08-25T16:41:53;33.30;37.70
33825;DHT22;20127;48.962;8.342;2022-08-25T16:44:54;33.20;38.00
33825;DHT22;20127;48.962;8.342;2022-08-25T16:47:56;33.10;37.80
33825;DHT22;20127;48.962;8.342;2022-08-25T16:50:59;33.10;38.10
33825;DHT22;20127;48.962;8.342;2022-08-25T16:54:01;33.10;38.00
33825;DHT22;20127;48.962;8.342;2022-08-25T16:57:20;33.10;37.80
33825;DHT22;20127;48.962;8.342;2022-08-25T17:00:24;33.00;38.10
33825;DHT22;20127;48.962;8.342;2022-08-25T17:03:27;32.90;38.00
33825;DHT22;20127;48.962;8.342;2022-08-25T17:06:33;32.80;38.40
33825;DHT22;20127;48.962;8.342;2022-08-25T17:09:35;32.80;38.70
33825;DHT22;20127;48.962;8.342;2022-08-25T17:12:37;32.60;38.70
33825;DHT22;20127;48.962;8.342;2022-08-25T17:15:40;32.50;39.20
33825;DHT22;20127;48.962;8.342;2022-08-25T17:18:42;32.20;39.00
33825;DHT22;20127;48.962;8.342;2022-08-25T17:21:46;32.10;39.40
33825;DHT22;20127;48.962;8.342;2022-08-25T17:24:47;32.00;39.60
33825;DHT22;20127;48.962;8.342;2022-08-25T17:27:49;31.80;39.70
33825;DHT22;20127;48.962;8.342;2022-08-25T17:30:51;31.80;39.90
33825;DHT22;20127;48.962;8.342;2022-08-25T17:33:52;31.70;40.20
33825;DHT22;20127;48.962;8.342;2022-08-25T17:36:56;31.70;40.30
33825;DHT22;20127;48.962;8.342;2022-08-25T17:39:58;31.70;40.50
33825;DHT22;20127;48.962;8.342;2022-08-25T17:43:00;31.60;40.80
33825;DHT22;20127;48.962;8.342;2022-08-25T17:46:03;31.50;40.90
33825;DHT22;20127;48.962;8.342;2022-08-25T17:49:05;31.40;41.20
33825;DHT22;20127;48.962;8.342;2022-08-25T17:52:08;31.30;41.40
33825;DHT22;20127;48.962;8.342;2022-08-25T17:55:11;31.20;41.60
33825;DHT22;20127;48.962;8.342;2022-08-25T17:58:15;31.10;41.60
33825;DHT22;20127;48.962;8.342;2022-08-25T18:01:20;31.00;41.40
33825;DHT22;20127;48.962;8.342;2022-08-25T18:04:21;31.00;41.80
33825;DHT22;20127;48.962;8.342;2022-08-25T18:07:24;30.90;41.80
33825;DHT22;20127;48.962;8.342;2022-08-25T18:10:26;30.80;42.30
33825;DHT22;20127;48.962;8.342;2022-08-25T18:13:28;30.70;42.40
33825;DHT22;20127;48.962;8.342;2022-08-25T18:16:31;30.70;42.40
33825;DHT22;20127;48.962;8.342;2022-08-25T18:19:33;30.60;42.80
33825;DHT22;20127;48.962;8.342;2022-08-25T18:26:50;30.50;44.00
33825;DHT22;20127;48.962;8.342;2022-08-25T18:30:00;30.40;44.00
33825;DHT22;20127;48.962;8.342;2022-08-25T18:33:06;30.30;44.30
33825;DHT22;20127;48.962;8.342;2022-08-25T18:36:11;30.20;44.80
33825;DHT22;20127;48.962;8.342;2022-08-25T18:39:13;30.10;45.40
33825;DHT22;20127;48.962;8.342;2022-08-25T18:42:34;30.00;45.30
33825;DHT22;20127;48.962;8.342;2022-08-25T18:45:39;29.80;45.70
33825;DHT22;20127;48.962;8.342;2022-08-25T18:48:42;29.70;46.10
33825;DHT22;20127;48.962;8.342;2022-08-25T18:51:46;29.50;46.50
33825;DHT22;20127;48.962;8.342;2022-08-25T18:55:06;29.30;46.70
33825;DHT22;20127;48.962;8.342;2022-08-25T18:58:24;29.20;46.70
33825;DHT22;20127;48.962;8.342;2022-08-25T19:09:10;28.70;47.80
33825;DHT22;20127;48.962;8.342;2022-08-25T19:12:42;28.50;48.20
33825;DHT22;20127;48.962;8.342;2022-08-25T19:15:54;28.40;48.50
33825;DHT22;20127;48.962;8.342;2022-08-25T19:18:56;28.20;49.00
33825;DHT22;20127;48.962;8.342;2022-08-25T19:21:58;28.10;49.40
33825;DHT22;20127;48.962;8.342;2022-08-25T19:25:01;27.90;50.40
33825;DHT22;20127;48.962;8.342;2022-08-25T19:28:05;27.70;50.20
33825;DHT22;20127;48.962;8.342;2022-08-25T19:31:08;27.60;50.70
33825;DHT22;20127;48.962;8.342;2022-08-25T19:34:13;27.50;51.00
33825;DHT22;20127;48.962;8.342;2022-08-25T19:37:16;27.30;51.40
33825;DHT22;20127;48.962;8.342;2022-08-25T19:40:20;27.20;51.70
33825;DHT22;20127;48.962;8.342;2022-08-25T19:43:22;27.00;52.20
33825;DHT22;20127;48.962;8.342;2022-08-25T19:46:27;26.80;52.50
33825;DHT22;20127;48.962;8.342;2022-08-25T19:49:31;26.60;53.00
33825;DHT22;20127;48.962;8.342;2022-08-25T19:52:34;26.50;53.40
33825;DHT22;20127;48.962;8.342;2022-08-25T19:55:35;26.40;53.80
33825;DHT22;20127;48.962;8.342;2022-08-25T19:58:37;26.30;54.00